sensor_id;sensor_type;location;lat;lon;timestamp;P1;durP1;ratioP1;P2;durP2;ratioP2
21639;SDS011;10981;45.462;10.974;2022-09-11T00:01:41;0.70;;;0.70;;
21639;SDS011;10981;45.462;10.974;2022-09-11T00:04:09;2.08;;;0.80;;
21639;SDS011;10981;45.462;10.974;2022-09-11T00:06:37;1.38;;;0.88;;
21639;SDS011;10981;45.462;10.974;2022-09-11T00:09:06;0.43;;;0.43;;
21639;SDS011;10981;45.462;10.974;2022-09-11T00:11:37;0.93;;;0.93;;
21639;SDS011;10981;45.462;10.974;2022-09-11T00:14:08;2.22;;;0.95;;
21639;SDS011;10981;45.462;10.974;2022-09-11T00:16:38;0.85;;;0.85;;
21639;SDS011;10981;45.462;10.974;2022-09-11T00:19:15;1.40;;;1.00;;
21639;SDS011;10981;45.462;10.974;2022-09-11T00:21:45;3.13;;;0.88;;
21639;SDS011;10981;45.462;10.974;2022-09-11T00:24:15;1.00;;;0.90;;
21639;SDS011;10981;45.462;10.974;2022-09-11T00:26:44;1.33;;;1.00;;
21639;SDS011;10981;45.462;10.974;2022-09-11T00:29:13;1.65;;;0.65;;
21639;SDS011;10981;45.462;10.974;2022-09-11T00:31:41;1.33;;;1.00;;
21639;SDS011;10981;45.462;10.974;2022-09-11T00:34:10;1.10;;;1.00;;
21639;SDS011;10981;45.462;10.974;2022-09-11T00:36:38;2.15;;;1.02;;
21639;SDS011;10981;45.462;10.974;2022-09-11T00:39:08;4.18;;;1.38;;
21639;SDS011;10981;45.462;10.974;2022-09-11T00:41:38;6.85;;;1.50;;
21639;SDS011;10981;45.462;10.974;2022-09-11T00:46:47;1.45;;;1.05;;
21639;SDS011;10981;45.462;10.974;2022-09-11T00:51:59;2.78;;;1.00;;
21639;SDS011;10981;45.462;10.974;2022-09-11T00:57:23;2.38;;;1.05;;
21639;SDS011;10981;45.462;10.974;2022-09-11T00:59:54;6.27;;;1.90;;
21639;SDS011;10981;45.462;10.974;2022-09-11T01:02:25;2.35;;;1.27;;
21639;SDS011;10981;45.462;10.974;2022-09-11T01:04:56;3.63;;;1.40;;
21639;SDS011;10981;45.462;10.974;2022-09-11T01:07:24;8.45;;;1.80;;
21639;SDS011;10981;45.462;10.974;2022-09-11T01:09:55;3.17;;;1.27;;
21639;SDS011;10981;45.462;10.974;2022-09-11T01:15:29;2.78;;;1.42;;
21639;SDS011;10981;45.462;10.974;2022-09-11T01:18:25;2.45;;;1.50;;
21639;SDS011;10981;45.462;10.974;2022-09-11T01:21:06;2.80;;;1.65;;
21639;SDS011;10981;45.462;10.974;2022-09-11T01:29:28;2.05;;;1.20;;
21639;SDS011;10981;45.462;10.974;2022-09-11T01:38:16;3.70;;;1.50;;
21639;SDS011;10981;45.462;10.974;2022-09-11T01:43:35;1.13;;;1.00;;
21639;SDS011;10981;45.462;10.974;2022-09-11T01:46:45;1.35;;;0.85;;
21639;SDS011;10981;45.462;10.974;2022-09-11T01:49:17;3.50;;;1.23;;
21639;SDS011;10981;45.462;10.974;2022-09-11T01:52:11;4.18;;;1.55;;
21639;SDS011;10981;45.462;10.974;2022-09-11T01:54:46;2.65;;;1.23;;
21639;SDS011;10981;45.462;10.974;2022-09-11T01:57:26;3.15;;;1.60;;
21639;SDS011;10981;45.462;10.974;2022-09-11T02:00:07;3.22;;;2.10;;
21639;SDS011;10981;45.462;10.974;2022-09-11T02:05:55;3.92;;;1.55;;
21639;SDS011;10981;45.462;10.974;2022-09-11T02:08:47;2.35;;;1.40;;
21639;SDS011;10981;45.462;10.974;2022-09-11T02:11:21;3.40;;;2.05;;
21639;SDS011;10981;45.462;10.974;2022-09-11T02:16:54;3.35;;;1.60;;
21639;SDS011;10981;45.462;10.974;2022-09-11T02:19:31;1.90;;;1.47;;
21639;SDS011;10981;45.462;10.974;2022-09-11T02:21:59;1.73;;;1.58;;
21639;SDS011;10981;45.462;10.974;2022-09-11T02:24:28;1.30;;;1.20;;
21639;SDS011;10981;45.462;10.974;2022-09-11T02:26:58;4.40;;;1.48;;
21639;SDS011;10981;45.462;10.974;2022-09-11T02:29:31;2.70;;;1.60;;
21639;SDS011;10981;45.462;10.974;2022-09-11T02:32:00;3.63;;;1.20;;
21639;SDS011;10981;45.462;10.974;2022-09-11T02:34:30;3.60;;;1.50;;
21639;SDS011;10981;45.462;10.974;2022-09-11T02:43:33;2.17;;;1.20;;
21639;SDS011;10981;45.462;10.974;2022-09-11T02:46:38;1.40;;;1.25;;
21639;SDS011;10981;45.462;10.974;2022-09-11T02:52:54;1.02;;;0.55;;
21639;SDS011;10981;45.462;10.974;2022-09-11T02:55:17;4.65;;;1.00;;
21639;SDS011;10981;45.462;10.974;2022-09-11T02:58:12;3.83;;;0.90;;
21639;SDS011;10981;45.462;10.974;2022-09-11T03:00:50;1.70;;;0.80;;
21639;SDS011;10981;45.462;10.974;2022-09-11T03:03:20;0.90;;;0.80;;
21639;SDS011;10981;45.462;10.974;2022-09-11T03:05:50;1.63;;;0.70;;
21639;SDS011;10981;45.462;10.974;2022-09-11T03:08:19;1.00;;;0.60;;
21639;SDS011;10981;45.462;10.974;2022-09-11T03:10:47;2.70;;;0.77;;
21639;SDS011;10981;45.462;10.974;2022-09-11T03:13:16;2.00;;;0.77;;
21639;SDS011;10981;45.462;10.974;2022-09-11T03:15:44;3.00;;;0.90;;
21639;SDS011;10981;45.462;10.974;2022-09-11T03:18:13;2.70;;;0.80;;
21639;SDS011;10981;45.462;10.974;2022-09-11T03:20:45;2.40;;;1.08;;
21639;SDS011;10981;45.462;10.974;2022-09-11T03:23:13;1.85;;;0.82;;
21639;SDS011;10981;45.462;10.974;2022-09-11T03:25:41;6.28;;;1.13;;
21639;SDS011;10981;45.462;10.974;2022-09-11T03:28:10;5.88;;;1.40;;
21639;SDS011;10981;45.462;10.974;2022-09-11T03:30:39;4.88;;;1.60;;
21639;SDS011;10981;45.462;10.974;2022-09-11T03:33:08;7.75;;;1.35;;
21639;SDS011;10981;45.462;10.974;2022-09-11T03:35:37;2.90;;;1.05;;
21639;SDS011;10981;45.462;10.974;2022-09-11T03:38:05;4.53;;;1.20;;
21639;SDS011;10981;45.462;10.974;2022-09-11T03:40:33;4.05;;;0.98;;
21639;SDS011;10981;45.462;10.974;2022-09-11T03:43:01;6.40;;;1.35;;
21639;SDS011;10981;45.462;10.974;2022-09-11T03:45:30;5.22;;;1.10;;
21639;SDS011;10981;45.462;10.974;2022-09-11T03:47:58;5.95;;;1.30;;
21639;SDS011;10981;45.462;10.974;2022-09-11T03:50:27;2.72;;;1.05;;
21639;SDS011;10981;45.462;10.974;2022-09-11T03:52:58;6.25;;;1.00;;
21639;SDS011;10981;45.462;10.974;2022-09-11T03:55:27;1.42;;;1.00;;
21639;SDS011;10981;45.462;10.974;2022-09-11T03:57:55;1.48;;;0.77;;
21639;SDS011;10981;45.462;10.974;2022-09-11T04:00:25;1.50;;;0.95;;
21639;SDS011;10981;45.462;10.974;2022-09-11T04:02:56;3.30;;;0.90;;
21639;SDS011;10981;45.462;10.974;2022-09-11T04:05:41;1.45;;;0.95;;
21639;SDS011;10981;45.462;10.974;2022-09-11T04:08:21;1.63;;;0.85;;
21639;SDS011;10981;45.462;10.974;2022-09-11T04:10:54;4.43;;;1.20;;
21639;SDS011;10981;45.462;10.974;2022-09-11T04:13:29;2.78;;;1.13;;
21639;SDS011;10981;45.462;10.974;2022-09-11T04:16:05;1.05;;;0.95;;
21639;SDS011;10981;45.462;10.974;2022-09-11T04:18:38;1.33;;;1.23;;
21639;SDS011;10981;45.462;10.974;2022-09-11T04:21:08;3.25;;;1.50;;
21639;SDS011;10981;45.462;10.974;2022-09-11T04:23:40;1.83;;;1.00;;
21639;SDS011;10981;45.462;10.974;2022-09-11T04:26:20;1.88;;;0.85;;
21639;SDS011;10981;45.462;10.974;2022-09-11T04:28:52;3.37;;;1.10;;
21639;SDS011;10981;45.462;10.974;2022-09-11T04:31:20;1.15;;;0.98;;
21639;SDS011;10981;45.462;10.974;2022-09-11T04:33:49;1.20;;;0.80;;
21639;SDS011;10981;45.462;10.974;2022-09-11T04:36:24;1.17;;;1.08;;
21639;SDS011;10981;45.462;10.974;2022-09-11T04:38:54;2.50;;;1.00;;
21639;SDS011;10981;45.462;10.974;2022-09-11T04:41:24;3.35;;;1.08;;
21639;SDS011;10981;45.462;10.974;2022-09-11T04:43:55;2.92;;;1.00;;
21639;SDS011;10981;45.462;10.974;2022-09-11T04:46:31;2.45;;;1.30;;
21639;SDS011;10981;45.462;10.974;2022-09-11T04:49:02;1.50;;;0.90;;
21639;SDS011;10981;45.462;10.974;2022-09-11T04:51:31;1.75;;;0.98;;
21639;SDS011;10981;45.462;10.974;2022-09-11T04:54:06;0.88;;;0.88;;
21639;SDS011;10981;45.462;10.974;2022-09-11T04:56:37;0.68;;;0.68;;
21639;SDS011;10981;45.462;10.974;2022-09-11T04:59:09;0.80;;;0.50;;
21639;SDS011;10981;45.462;10.974;2022-09-11T05:01:45;0.80;;;0.45;;
21639;SDS011;10981;45.462;10.974;2022-09-11T05:04:15;1.42;;;0.50;;
21639;SDS011;10981;45.462;10.974;2022-09-11T05:06:53;1.98;;;0.43;;
21639;SDS011;10981;45.462;10.974;2022-09-11T05:09:21;1.20;;;0.57;;
21639;SDS011;10981;45.462;10.974;2022-09-11T05:11:50;0.82;;;0.40;;
21639;SDS011;10981;45.462;10.974;2022-09-11T05:14:20;0.70;;;0.55;;
21639;SDS011;10981;45.462;10.974;2022-09-11T05:16:53;3.03;;;0.47;;
21639;SDS011;10981;45.462;10.974;2022-09-11T05:19:24;2.10;;;0.43;;
21639;SDS011;10981;45.462;10.974;2022-09-11T05:21:52;2.55;;;0.70;;
21639;SDS011;10981;45.462;10.974;2022-09-11T05:24:22;1.00;;;0.40;;
21639;SDS011;10981;45.462;10.974;2022-09-11T05:26:51;0.77;;;0.50;;
21639;SDS011;10981;45.462;10.974;2022-09-11T05:29:22;1.23;;;0.55;;
21639;SDS011;10981;45.462;10.974;2022-09-11T05:32:07;0.60;;;0.40;;
21639;SDS011;10981;45.462;10.974;2022-09-11T05:34:35;0.60;;;0.60;;
21639;SDS011;10981;45.462;10.974;2022-09-11T05:37:03;0.85;;;0.85;;
21639;SDS011;10981;45.462;10.974;2022-09-11T05:39:38;1.63;;;0.65;;
21639;SDS011;10981;45.462;10.974;2022-09-11T05:42:11;0.40;;;0.40;;
21639;SDS011;10981;45.462;10.974;2022-09-11T05:44:42;1.48;;;0.60;;
21639;SDS011;10981;45.462;10.974;2022-09-11T05:47:14;1.65;;;0.70;;
21639;SDS011;10981;45.462;10.974;2022-09-11T05:49:45;0.68;;;0.68;;
21639;SDS011;10981;45.462;10.974;2022-09-11T05:52:13;0.90;;;0.70;;
21639;SDS011;10981;45.462;10.974;2022-09-11T05:54:41;0.70;;;0.60;;
21639;SDS011;10981;45.462;10.974;2022-09-11T05:57:11;0.50;;;0.50;;
21639;SDS011;10981;45.462;10.974;2022-09-11T05:59:39;2.35;;;0.85;;
21639;SDS011;10981;45.462;10.974;2022-09-11T06:02:09;2.10;;;0.73;;
21639;SDS011;10981;45.462;10.974;2022-09-11T06:04:43;3.13;;;1.23;;
21639;SDS011;10981;45.462;10.974;2022-09-11T06:07:11;4.20;;;0.75;;
21639;SDS011;10981;45.462;10.974;2022-09-11T06:09:45;0.80;;;0.80;;
21639;SDS011;10981;45.462;10.974;2022-09-11T06:12:13;2.22;;;0.70;;
21639;SDS011;10981;45.462;10.974;2022-09-11T06:14:42;2.15;;;1.00;;
21639;SDS011;10981;45.462;10.974;2022-09-11T06:17:12;3.28;;;0.90;;
21639;SDS011;10981;45.462;10.974;2022-09-11T06:19:40;0.82;;;0.70;;
21639;SDS011;10981;45.462;10.974;2022-09-11T06:22:08;3.58;;;1.02;;
21639;SDS011;10981;45.462;10.974;2022-09-11T06:24:44;1.55;;;0.80;;
21639;SDS011;10981;45.462;10.974;2022-09-11T06:27:15;1.20;;;1.05;;
21639;SDS011;10981;45.462;10.974;2022-09-11T06:29:47;1.35;;;1.00;;
21639;SDS011;10981;45.462;10.974;2022-09-11T06:32:18;3.00;;;0.98;;
21639;SDS011;10981;45.462;10.974;2022-09-11T06:34:47;0.80;;;0.80;;
21639;SDS011;10981;45.462;10.974;2022-09-11T06:37:15;1.20;;;0.93;;
21639;SDS011;10981;45.462;10.974;2022-09-11T06:39:43;2.10;;;0.85;;
21639;SDS011;10981;45.462;10.974;2022-09-11T06:42:18;2.78;;;1.38;;
21639;SDS011;10981;45.462;10.974;2022-09-11T06:44:47;3.50;;;1.10;;
21639;SDS011;10981;45.462;10.974;2022-09-11T06:47:17;2.25;;;1.17;;
21639;SDS011;10981;45.462;10.974;2022-09-11T06:49:47;1.58;;;0.98;;
21639;SDS011;10981;45.462;10.974;2022-09-11T06:52:35;3.15;;;1.48;;
21639;SDS011;10981;45.462;10.974;2022-09-11T06:55:09;1.95;;;1.27;;
21639;SDS011;10981;45.462;10.974;2022-09-11T06:57:46;3.28;;;1.35;;
21639;SDS011;10981;45.462;10.974;2022-09-11T07:00:19;2.97;;;1.45;;
21639;SDS011;10981;45.462;10.974;2022-09-11T07:02:47;4.20;;;1.70;;
21639;SDS011;10981;45.462;10.974;2022-09-11T07:05:17;3.60;;;1.77;;
21639;SDS011;10981;45.462;10.974;2022-09-11T07:07:48;2.60;;;1.40;;
21639;SDS011;10981;45.462;10.974;2022-09-11T07:10:18;2.08;;;1.40;;
21639;SDS011;10981;45.462;10.974;2022-09-11T07:15:21;4.07;;;1.50;;
21639;SDS011;10981;45.462;10.974;2022-09-11T07:17:49;4.05;;;1.38;;
21639;SDS011;10981;45.462;10.974;2022-09-11T07:20:18;1.55;;;1.45;;
21639;SDS011;10981;45.462;10.974;2022-09-11T07:22:48;2.55;;;1.38;;
21639;SDS011;10981;45.462;10.974;2022-09-11T07:25:17;3.90;;;1.70;;
21639;SDS011;10981;45.462;10.974;2022-09-11T07:27:46;2.42;;;1.58;;
21639;SDS011;10981;45.462;10.974;2022-09-11T07:30:15;2.33;;;1.63;;
21639;SDS011;10981;45.462;10.974;2022-09-11T07:32:47;2.75;;;1.90;;
21639;SDS011;10981;45.462;10.974;2022-09-11T07:35:15;3.22;;;1.67;;
21639;SDS011;10981;45.462;10.974;2022-09-11T07:37:50;3.92;;;1.63;;
21639;SDS011;10981;45.462;10.974;2022-09-11T07:40:23;2.17;;;1.58;;
21639;SDS011;10981;45.462;10.974;2022-09-11T07:42:52;3.50;;;1.55;;
21639;SDS011;10981;45.462;10.974;2022-09-11T07:45:20;2.58;;;1.48;;
21639;SDS011;10981;45.462;10.974;2022-09-11T07:47:50;4.03;;;1.50;;
21639;SDS011;10981;45.462;10.974;2022-09-11T07:50:20;3.33;;;1.38;;
21639;SDS011;10981;45.462;10.974;2022-09-11T07:52:50;2.38;;;1.60;;
21639;SDS011;10981;45.462;10.974;2022-09-11T07:55:19;2.50;;;1.90;;
21639;SDS011;10981;45.462;10.974;2022-09-11T07:57:48;3.47;;;1.70;;
21639;SDS011;10981;45.462;10.974;2022-09-11T08:00:18;2.38;;;1.73;;
21639;SDS011;10981;45.462;10.974;2022-09-11T08:02:47;2.20;;;1.60;;
21639;SDS011;10981;45.462;10.974;2022-09-11T08:05:23;2.10;;;1.30;;
21639;SDS011;10981;45.462;10.974;2022-09-11T08:07:52;4.18;;;2.00;;
21639;SDS011;10981;45.462;10.974;2022-09-11T08:10:21;2.10;;;1.70;;
21639;SDS011;10981;45.462;10.974;2022-09-11T08:12:54;6.32;;;2.38;;
21639;SDS011;10981;45.462;10.974;2022-09-11T08:15:30;1.77;;;1.65;;
21639;SDS011;10981;45.462;10.974;2022-09-11T08:18:00;4.70;;;1.70;;
21639;SDS011;10981;45.462;10.974;2022-09-11T08:20:29;3.78;;;1.52;;
21639;SDS011;10981;45.462;10.974;2022-09-11T08:22:57;2.33;;;1.52;;
21639;SDS011;10981;45.462;10.974;2022-09-11T08:25:25;1.60;;;1.08;;
21639;SDS011;10981;45.462;10.974;2022-09-11T08:27:56;2.80;;;1.15;;
21639;SDS011;10981;45.462;10.974;2022-09-11T08:30:25;1.58;;;1.20;;
21639;SDS011;10981;45.462;10.974;2022-09-11T08:32:54;1.58;;;1.48;;
21639;SDS011;10981;45.462;10.974;2022-09-11T08:35:22;3.00;;;1.65;;
21639;SDS011;10981;45.462;10.974;2022-09-11T08:37:51;3.40;;;1.60;;
21639;SDS011;10981;45.462;10.974;2022-09-11T08:40:21;2.88;;;1.90;;
21639;SDS011;10981;45.462;10.974;2022-09-11T08:42:51;5.47;;;1.90;;
21639;SDS011;10981;45.462;10.974;2022-09-11T08:45:21;3.00;;;1.52;;
21639;SDS011;10981;45.462;10.974;2022-09-11T08:47:57;2.83;;;2.03;;
21639;SDS011;10981;45.462;10.974;2022-09-11T08:53:02;2.15;;;1.38;;
21639;SDS011;10981;45.462;10.974;2022-09-11T08:55:48;4.35;;;2.00;;
21639;SDS011;10981;45.462;10.974;2022-09-11T09:04:03;3.47;;;1.70;;
21639;SDS011;10981;45.462;10.974;2022-09-11T09:12:01;1.88;;;1.30;;
21639;SDS011;10981;45.462;10.974;2022-09-11T09:17:58;4.25;;;1.30;;
21639;SDS011;10981;45.462;10.974;2022-09-11T09:20:36;4.80;;;1.60;;
21639;SDS011;10981;45.462;10.974;2022-09-11T09:25:47;5.10;;;1.45;;
21639;SDS011;10981;45.462;10.974;2022-09-11T09:28:20;1.92;;;1.30;;
21639;SDS011;10981;45.462;10.974;2022-09-11T09:30:55;2.63;;;1.33;;
21639;SDS011;10981;45.462;10.974;2022-09-11T09:38:40;2.80;;;1.65;;
21639;SDS011;10981;45.462;10.974;2022-09-11T09:46:42;2.75;;;1.73;;
21639;SDS011;10981;45.462;10.974;2022-09-11T09:49:18;2.97;;;1.95;;
21639;SDS011;10981;45.462;10.974;2022-09-11T09:51:53;2.58;;;1.98;;
21639;SDS011;10981;45.462;10.974;2022-09-11T09:54:31;2.05;;;1.38;;
21639;SDS011;10981;45.462;10.974;2022-09-11T09:57:03;1.85;;;1.58;;
21639;SDS011;10981;45.462;10.974;2022-09-11T09:59:56;3.63;;;1.90;;
21639;SDS011;10981;45.462;10.974;2022-09-11T10:05:27;2.08;;;1.85;;
21639;SDS011;10981;45.462;10.974;2022-09-11T10:11:12;3.60;;;1.45;;
21639;SDS011;10981;45.462;10.974;2022-09-11T10:13:53;4.85;;;2.00;;
21639;SDS011;10981;45.462;10.974;2022-09-11T10:16:23;2.00;;;1.60;;
21639;SDS011;10981;45.462;10.974;2022-09-11T10:18:54;2.22;;;1.65;;
21639;SDS011;10981;45.462;10.974;2022-09-11T10:21:26;2.30;;;1.55;;
21639;SDS011;10981;45.462;10.974;2022-09-11T10:26:43;2.17;;;1.60;;
21639;SDS011;10981;45.462;10.974;2022-09-11T10:29:17;2.95;;;1.30;;
21639;SDS011;10981;45.462;10.974;2022-09-11T10:31:47;2.22;;;1.70;;
21639;SDS011;10981;45.462;10.974;2022-09-11T10:34:18;2.17;;;1.30;;
21639;SDS011;10981;45.462;10.974;2022-09-11T10:36:55;3.38;;;1.30;;
21639;SDS011;10981;45.462;10.974;2022-09-11T10:39:29;3.03;;;1.50;;
21639;SDS011;10981;45.462;10.974;2022-09-11T10:42:00;1.63;;;1.15;;
21639;SDS011;10981;45.462;10.974;2022-09-11T10:44:44;2.53;;;1.33;;
21639;SDS011;10981;45.462;10.974;2022-09-11T10:47:16;1.27;;;1.10;;
21639;SDS011;10981;45.462;10.974;2022-09-11T10:50:09;2.83;;;1.30;;
21639;SDS011;10981;45.462;10.974;2022-09-11T10:56:06;2.15;;;1.75;;
21639;SDS011;10981;45.462;10.974;2022-09-11T10:58:35;1.58;;;1.48;;
21639;SDS011;10981;45.462;10.974;2022-09-11T11:01:08;4.07;;;1.42;;
21639;SDS011;10981;45.462;10.974;2022-09-11T11:03:37;2.05;;;1.75;;
21639;SDS011;10981;45.462;10.974;2022-09-11T11:06:18;3.42;;;1.52;;
21639;SDS011;10981;45.462;10.974;2022-09-11T11:12:13;2.08;;;1.85;;
21639;SDS011;10981;45.462;10.974;2022-09-11T11:20:27;3.38;;;1.42;;
21639;SDS011;10981;45.462;10.974;2022-09-11T11:26:12;3.92;;;1.00;;
21639;SDS011;10981;45.462;10.974;2022-09-11T11:28:54;3.58;;;1.20;;
21639;SDS011;10981;45.462;10.974;2022-09-11T11:31:36;2.42;;;1.15;;
21639;SDS011;10981;45.462;10.974;2022-09-11T11:39:54;1.35;;;1.10;;
21639;SDS011;10981;45.462;10.974;2022-09-11T11:45:24;1.67;;;1.30;;
21639;SDS011;10981;45.462;10.974;2022-09-11T11:48:29;1.42;;;1.20;;
21639;SDS011;10981;45.462;10.974;2022-09-11T11:51:19;2.88;;;1.30;;
21639;SDS011;10981;45.462;10.974;2022-09-11T11:59:27;1.92;;;1.30;;
21639;SDS011;10981;45.462;10.974;2022-09-11T12:04:42;2.00;;;1.20;;
21639;SDS011;10981;45.462;10.974;2022-09-11T12:09:54;1.83;;;1.42;;
21639;SDS011;10981;45.462;10.974;2022-09-11T12:12:25;2.08;;;1.42;;
21639;SDS011;10981;45.462;10.974;2022-09-11T12:15:05;1.23;;;1.13;;
21639;SDS011;10981;45.462;10.974;2022-09-11T12:17:36;2.35;;;1.27;;
21639;SDS011;10981;45.462;10.974;2022-09-11T12:22:44;2.47;;;1.00;;
21639;SDS011;10981;45.462;10.974;2022-09-11T12:27:52;2.45;;;1.17;;
21639;SDS011;10981;45.462;10.974;2022-09-11T12:39:14;3.80;;;1.10;;
21639;SDS011;10981;45.462;10.974;2022-09-11T12:41:52;1.25;;;1.15;;
21639;SDS011;10981;45.462;10.974;2022-09-11T12:50:18;3.10;;;1.80;;
21639;SDS011;10981;45.462;10.974;2022-09-11T12:52:52;1.85;;;1.45;;
21639;SDS011;10981;45.462;10.974;2022-09-11T12:58:29;3.75;;;1.30;;
21639;SDS011;10981;45.462;10.974;2022-09-11T13:01:11;1.73;;;1.60;;
21639;SDS011;10981;45.462;10.974;2022-09-11T13:09:28;1.35;;;1.25;;
21639;SDS011;10981;45.462;10.974;2022-09-11T13:14:54;1.92;;;1.30;;
21639;SDS011;10981;45.462;10.974;2022-09-11T13:17:31;2.13;;;1.05;;
21639;SDS011;10981;45.462;10.974;2022-09-11T13:25:10;1.33;;;1.20;;
21639;SDS011;10981;45.462;10.974;2022-09-11T13:30:23;2.03;;;1.40;;
21639;SDS011;10981;45.462;10.974;2022-09-11T13:33:02;3.03;;;1.58;;
21639;SDS011;10981;45.462;10.974;2022-09-11T13:35:48;2.92;;;1.50;;
21639;SDS011;10981;45.462;10.974;2022-09-11T13:38:19;3.38;;;1.40;;
21639;SDS011;10981;45.462;10.974;2022-09-11T13:41:06;1.73;;;1.30;;
21639;SDS011;10981;45.462;10.974;2022-09-11T13:43:45;1.90;;;1.30;;
21639;SDS011;10981;45.462;10.974;2022-09-11T13:46:25;1.30;;;1.20;;
21639;SDS011;10981;45.462;10.974;2022-09-11T13:51:42;1.98;;;1.45;;
21639;SDS011;10981;45.462;10.974;2022-09-11T13:54:17;1.60;;;1.10;;
21639;SDS011;10981;45.462;10.974;2022-09-11T14:02:27;3.15;;;1.38;;
21639;SDS011;10981;45.462;10.974;2022-09-11T14:05:02;1.77;;;1.02;;
21639;SDS011;10981;45.462;10.974;2022-09-11T14:12:52;2.00;;;1.30;;
21639;SDS011;10981;45.462;10.974;2022-09-11T14:15:26;2.80;;;1.37;;
21639;SDS011;10981;45.462;10.974;2022-09-11T14:18:18;2.33;;;1.50;;
21639;SDS011;10981;45.462;10.974;2022-09-11T14:21:04;1.85;;;1.42;;
21639;SDS011;10981;45.462;10.974;2022-09-11T14:23:40;1.50;;;1.38;;
21639;SDS011;10981;45.462;10.974;2022-09-11T14:26:16;2.00;;;1.42;;
21639;SDS011;10981;45.462;10.974;2022-09-11T14:31:54;2.47;;;1.35;;
21639;SDS011;10981;45.462;10.974;2022-09-11T14:34:49;1.40;;;1.30;;
21639;SDS011;10981;45.462;10.974;2022-09-11T14:37:17;1.48;;;1.33;;
21639;SDS011;10981;45.462;10.974;2022-09-11T14:39:56;2.10;;;1.38;;
21639;SDS011;10981;45.462;10.974;2022-09-11T14:42:27;2.58;;;1.42;;
21639;SDS011;10981;45.462;10.974;2022-09-11T14:44:58;4.05;;;1.60;;
21639;SDS011;10981;45.462;10.974;2022-09-11T14:47:33;2.67;;;1.35;;
21639;SDS011;10981;45.462;10.974;2022-09-11T14:50:02;3.35;;;1.40;;
21639;SDS011;10981;45.462;10.974;2022-09-11T14:52:32;2.90;;;1.75;;
21639;SDS011;10981;45.462;10.974;2022-09-11T14:55:03;3.65;;;1.48;;
21639;SDS011;10981;45.462;10.974;2022-09-11T14:57:33;5.20;;;1.45;;
21639;SDS011;10981;45.462;10.974;2022-09-11T15:00:04;3.10;;;1.75;;
21639;SDS011;10981;45.462;10.974;2022-09-11T15:02:32;3.67;;;1.30;;
21639;SDS011;10981;45.462;10.974;2022-09-11T15:05:00;2.20;;;1.25;;
21639;SDS011;10981;45.462;10.974;2022-09-11T15:07:28;2.33;;;1.48;;
21639;SDS011;10981;45.462;10.974;2022-09-11T15:09:56;2.38;;;1.50;;
21639;SDS011;10981;45.462;10.974;2022-09-11T15:12:25;5.32;;;2.13;;
21639;SDS011;10981;45.462;10.974;2022-09-11T15:14:55;1.60;;;1.50;;
21639;SDS011;10981;45.462;10.974;2022-09-11T15:17:25;1.50;;;1.40;;
21639;SDS011;10981;45.462;10.974;2022-09-11T15:19:58;3.20;;;1.60;;
21639;SDS011;10981;45.462;10.974;2022-09-11T15:22:29;4.80;;;1.80;;
21639;SDS011;10981;45.462;10.974;2022-09-11T15:24:57;2.53;;;1.65;;
21639;SDS011;10981;45.462;10.974;2022-09-11T15:27:26;2.33;;;1.45;;
21639;SDS011;10981;45.462;10.974;2022-09-11T15:29:54;3.15;;;1.60;;
21639;SDS011;10981;45.462;10.974;2022-09-11T15:32:22;4.20;;;2.00;;
21639;SDS011;10981;45.462;10.974;2022-09-11T15:34:50;8.48;;;1.77;;
21639;SDS011;10981;45.462;10.974;2022-09-11T15:37:20;4.85;;;1.70;;
21639;SDS011;10981;45.462;10.974;2022-09-11T15:39:49;3.60;;;1.90;;
21639;SDS011;10981;45.462;10.974;2022-09-11T15:42:17;6.82;;;1.85;;
21639;SDS011;10981;45.462;10.974;2022-09-11T15:44:46;2.25;;;1.42;;
21639;SDS011;10981;45.462;10.974;2022-09-11T15:47:16;10.20;;;2.58;;
21639;SDS011;10981;45.462;10.974;2022-09-11T15:49:44;3.00;;;1.85;;
21639;SDS011;10981;45.462;10.974;2022-09-11T15:52:15;3.92;;;1.30;;
21639;SDS011;10981;45.462;10.974;2022-09-11T15:54:45;4.43;;;1.65;;
21639;SDS011;10981;45.462;10.974;2022-09-11T15:57:14;3.25;;;1.45;;
21639;SDS011;10981;45.462;10.974;2022-09-11T15:59:43;4.88;;;1.90;;
21639;SDS011;10981;45.462;10.974;2022-09-11T16:02:11;2.45;;;1.63;;
21639;SDS011;10981;45.462;10.974;2022-09-11T16:04:39;1.40;;;1.30;;
21639;SDS011;10981;45.462;10.974;2022-09-11T16:07:07;4.82;;;1.70;;
21639;SDS011;10981;45.462;10.974;2022-09-11T16:09:35;4.65;;;1.63;;
21639;SDS011;10981;45.462;10.974;2022-09-11T16:12:04;3.90;;;1.98;;
21639;SDS011;10981;45.462;10.974;2022-09-11T16:14:33;1.70;;;1.60;;
21639;SDS011;10981;45.462;10.974;2022-09-11T16:17:04;3.75;;;1.60;;
21639;SDS011;10981;45.462;10.974;2022-09-11T16:19:36;2.00;;;1.80;;
21639;SDS011;10981;45.462;10.974;2022-09-11T16:22:04;4.68;;;2.17;;
21639;SDS011;10981;45.462;10.974;2022-09-11T16:24:34;3.83;;;2.10;;
21639;SDS011;10981;45.462;10.974;2022-09-11T16:27:05;2.78;;;1.63;;
21639;SDS011;10981;45.462;10.974;2022-09-11T16:29:34;2.95;;;1.60;;
21639;SDS011;10981;45.462;10.974;2022-09-11T16:32:23;3.38;;;1.95;;
21639;SDS011;10981;45.462;10.974;2022-09-11T16:34:55;2.92;;;1.60;;
21639;SDS011;10981;45.462;10.974;2022-09-11T16:37:25;1.80;;;1.45;;
21639;SDS011;10981;45.462;10.974;2022-09-11T16:40:00;3.22;;;1.67;;
21639;SDS011;10981;45.462;10.974;2022-09-11T16:42:28;2.90;;;1.90;;
21639;SDS011;10981;45.462;10.974;2022-09-11T16:44:57;5.45;;;2.10;;
21639;SDS011;10981;45.462;10.974;2022-09-11T16:47:25;2.08;;;1.60;;
21639;SDS011;10981;45.462;10.974;2022-09-11T16:49:56;3.63;;;2.13;;
21639;SDS011;10981;45.462;10.974;2022-09-11T16:52:34;3.05;;;1.90;;
21639;SDS011;10981;45.462;10.974;2022-09-11T16:55:03;4.72;;;1.60;;
21639;SDS011;10981;45.462;10.974;2022-09-11T16:57:36;4.85;;;1.60;;
21639;SDS011;10981;45.462;10.974;2022-09-11T17:00:05;5.47;;;2.00;;
21639;SDS011;10981;45.462;10.974;2022-09-11T17:02:36;3.00;;;1.73;;
21639;SDS011;10981;45.462;10.974;2022-09-11T17:05:05;1.92;;;1.83;;
21639;SDS011;10981;45.462;10.974;2022-09-11T17:07:35;2.50;;;1.90;;
21639;SDS011;10981;45.462;10.974;2022-09-11T17:10:04;3.38;;;1.88;;
21639;SDS011;10981;45.462;10.974;2022-09-11T17:12:32;2.80;;;1.90;;
21639;SDS011;10981;45.462;10.974;2022-09-11T17:15:00;2.20;;;1.85;;
21639;SDS011;10981;45.462;10.974;2022-09-11T17:17:29;2.17;;;1.50;;
21639;SDS011;10981;45.462;10.974;2022-09-11T17:19:57;7.15;;;1.98;;
21639;SDS011;10981;45.462;10.974;2022-09-11T17:22:25;4.68;;;2.05;;
21639;SDS011;10981;45.462;10.974;2022-09-11T17:24:53;2.75;;;2.00;;
21639;SDS011;10981;45.462;10.974;2022-09-11T17:27:22;5.93;;;2.08;;
21639;SDS011;10981;45.462;10.974;2022-09-11T17:29:50;2.97;;;1.90;;
21639;SDS011;10981;45.462;10.974;2022-09-11T17:32:18;7.13;;;2.42;;
21639;SDS011;10981;45.462;10.974;2022-09-11T17:34:54;3.78;;;2.20;;
21639;SDS011;10981;45.462;10.974;2022-09-11T17:37:26;3.90;;;2.33;;
21639;SDS011;10981;45.462;10.974;2022-09-11T17:39:54;3.97;;;2.42;;
21639;SDS011;10981;45.462;10.974;2022-09-11T17:42:25;9.15;;;3.97;;
21639;SDS011;10981;45.462;10.974;2022-09-11T17:44:56;17.77;;;6.50;;
21639;SDS011;10981;45.462;10.974;2022-09-11T17:47:29;14.80;;;6.05;;
21639;SDS011;10981;45.462;10.974;2022-09-11T17:49:58;10.13;;;4.70;;
21639;SDS011;10981;45.462;10.974;2022-09-11T17:52:30;5.93;;;3.45;;
21639;SDS011;10981;45.462;10.974;2022-09-11T17:55:00;7.05;;;3.28;;
21639;SDS011;10981;45.462;10.974;2022-09-11T17:57:28;4.10;;;3.05;;
21639;SDS011;10981;45.462;10.974;2022-09-11T17:59:58;4.10;;;3.05;;